This is the latest recevied weather packets stored in our database for station/object DB8NZ-11. If no packets are shown the sender has not sent any weather packets the latest 1 day(s).
| Time | Temp. | Humidity | Pressure | Rain* | Wind** | Luminosity | Snow |
|---|---|---|---|---|---|---|---|
| 1778425177 | 29.44° C | 27% | 1012.7 hPa | - | - | - | - |
| 1778424277 | 29.44° C | 28% | 1012.9 hPa | - | - | - | - |
| 1778423377 | 28.33° C | 27% | 1013.1 hPa | - | - | - | - |
| 1778422477 | 29.44° C | 26% | 1013.2 hPa | - | - | - | - |
| 1778421577 | 29.44° C | 27% | 1013.4 hPa | - | - | - | - |
| 1778420677 | 28.89° C | 28% | 1013.6 hPa | - | - | - | - |
| 1778419777 | 29.44° C | 26% | 1013.9 hPa | - | - | - | - |
| 1778418877 | 28.89° C | 27% | 1014 hPa | - | - | - | - |
| 1778417977 | 26.67° C | 31% | 1014.3 hPa | - | - | - | - |
| 1778417077 | 27.78° C | 27% | 1014.3 hPa | - | - | - | - |
| 1778416569 | 30° C | 29% | 1014.4 hPa | - | - | - | - |
| 1778415669 | 27.78° C | 32% | 1014.7 hPa | - | - | - | - |
| 1778414769 | 29.44° C | 31% | 1014.8 hPa | - | - | - | - |
| 1778413869 | 29.44° C | 31% | 1015.2 hPa | - | - | - | - |
| 1778412969 | 28.89° C | 32% | 1015.4 hPa | - | - | - | - |
| 1778412069 | 27.78° C | 34% | 1015.6 hPa | - | - | - | - |
| 1778411169 | 26.11° C | 35% | 1015.9 hPa | - | - | - | - |
| 1778410269 | 26.11° C | 36% | 1016 hPa | - | - | - | - |
| 1778409369 | 27.22° C | 34% | 1016.2 hPa | - | - | - | - |
| 1778407568 | 27.78° C | 34% | 1016.6 hPa | - | - | - | - |
| 1778406668 | 28.33° C | 32% | 1016.7 hPa | - | - | - | - |
| 1778405768 | 27.78° C | 34% | 1017 hPa | - | - | - | - |
| 1778404868 | 27.22° C | 34% | 1017.1 hPa | - | - | - | - |
| 1778403968 | 27.22° C | 35% | 1017.1 hPa | - | - | - | - |
| 1778403068 | 26.11° C | 36% | 1017.3 hPa | - | - | - | - |
* Rain since midnight (hover to see other rain measurements)
** Current wind speed in m/s (hover to see current wind gust speed)